Time;durP1;ratioP1;P1;durP2;ratioP2;P2;SDS_P1;SDS_P2;PMS_P1;PMS_P2;Temp;Humidity;BMP_temperature;BMP_pressure;BME280_temperature;BME280_humidity;BME280_pressure;Samples;Min_cycle;Max_cycle;Signal;HPM_P1;HPM_P2
2022/04/10 00:01:38;;;;;;;11.73;5.97;;;5.70;67.10;;;;;;5071888;28;20044;-73
2022/04/10 00:04:05;;;;;;;12.23;5.70;;;5.70;67.10;;;;;;5057738;28;20068;-73
2022/04/10 00:06:43;;;;;;;15.43;6.15;;;5.60;66.50;;;;;;5070871;28;20039;-73
2022/04/10 00:09:10;;;;;;;14.32;7.22;;;5.70;67.30;;;;;;5073511;28;20037;-73
2022/04/10 00:11:36;;;;;;;16.20;8.02;;;5.70;67.30;;;;;;5073095;28;20054;-73
2022/04/10 00:14:25;;;;;;;10.45;5.00;;;5.70;67.30;;;;;;5073443;28;20031;-73
2022/04/10 00:16:56;;;;;;;15.32;8.35;;;5.70;67.20;;;;;;5073077;28;20366;-73
2022/04/10 00:19:24;;;;;;;10.55;4.60;;;5.70;67.20;;;;;;5071862;28;20067;-73
2022/04/10 00:22:09;;;;;;;8.38;3.90;;;5.60;67.20;;;;;;5071119;28;20044;-73
2022/04/10 00:25:14;;;;;;;10.98;5.78;;;5.60;67.40;;;;;;5055502;28;20484;-73
2022/04/10 00:27:49;;;;;;;13.20;6.55;;;5.60;67.30;;;;;;5055499;28;20097;-73
2022/04/10 00:30:35;;;;;;;9.65;5.20;;;5.60;67.10;;;;;;5088227;28;20025;-73
2022/04/10 00:33:16;;;;;;;13.18;7.05;;;5.60;67.30;;;;;;5054940;28;20063;-73
2022/04/10 00:36:11;;;;;;;10.43;4.70;;;5.60;67.40;;;;;;5070486;28;20094;-73
2022/04/10 00:38:52;;;;;;;10.73;5.25;;;5.60;67.20;;;;;;5072811;28;20044;-73
2022/04/10 00:41:35;;;;;;;8.70;4.35;;;5.60;67.10;;;;;;5054545;28;20079;-73
2022/04/10 00:44:27;;;;;;;9.15;4.28;;;5.60;67.10;;;;;;5054851;28;20489;-73
2022/04/10 00:47:01;;;;;;;8.88;4.28;;;5.60;67.20;;;;;;5070991;28;20032;-73
2022/04/10 00:49:27;;;;;;;10.98;4.57;;;5.60;67.10;;;;;;5071489;28;20127;-73
2022/04/10 00:51:55;;;;;;;10.10;4.45;;;5.60;67.10;;;;;;5070315;28;20110;-73
2022/04/10 00:54:30;;;;;;;9.85;4.57;;;5.60;67.00;;;;;;5054835;28;20397;-73
2022/04/10 00:57:00;;;;;;;11.98;5.07;;;5.60;67.00;;;;;;5071289;28;20434;-73
2022/04/10 00:59:50;;;;;;;9.43;4.60;;;5.60;66.90;;;;;;5071485;28;20035;-73
2022/04/10 01:02:17;;;;;;;9.88;4.25;;;5.70;67.10;;;;;;5054557;28;20040;-73
2022/04/10 01:04:51;;;;;;;9.90;4.90;;;5.60;66.40;;;;;;5054411;28;20033;-73
2022/04/10 01:07:21;;;;;;;9.45;4.85;;;5.70;67.10;;;;;;5054169;28;20439;-73
2022/04/10 01:09:50;;;;;;;11.77;5.22;;;5.70;67.00;;;;;;5071345;28;20481;-73
2022/04/10 01:12:35;;;;;;;9.68;4.38;;;5.70;67.30;;;;;;5071036;28;20037;-73
2022/04/10 01:15:23;;;;;;;15.32;7.22;;;5.60;67.30;;;;;;5071329;28;20405;-73
2022/04/10 01:17:50;;;;;;;10.95;5.05;;;5.60;67.20;;;;;;5072830;28;20063;-73
2022/04/10 01:20:16;;;;;;;;;;;5.60;66.60;;;;;;5070502;28;20045;-73
2022/04/10 01:23:03;;;;;;;13.75;4.53;;;5.70;66.50;;;;;;5071248;28;19934;-73
2022/04/10 01:25:35;;;;;;;11.30;4.78;;;5.60;67.10;;;;;;5055885;28;20040;-73
2022/04/10 01:28:25;;;;;;;12.43;5.40;;;5.60;67.40;;;;;;5071273;28;20043;-73
2022/04/10 01:30:52;;;;;;;9.90;4.75;;;5.60;67.30;;;;;;5070556;28;20028;-73
2022/04/10 01:33:36;;;;;;;10.82;4.70;;;5.60;67.30;;;;;;5054428;28;20052;-73
2022/04/10 01:36:02;;;;;;;12.43;5.53;;;5.60;67.30;;;;;;5071096;28;20043;-73
2022/04/10 01:38:36;;;;;;;10.02;5.00;;;5.60;67.20;;;;;;5054298;28;20433;-73
2022/04/10 01:41:11;;;;;;;11.52;4.68;;;5.60;67.20;;;;;;5068032;28;20040;-73
2022/04/10 01:43:51;;;;;;;12.50;4.82;;;5.70;67.00;;;;;;5070158;28;20041;-73
2022/04/10 01:46:18;;;;;;;22.50;5.82;;;5.60;67.10;;;;;;5070608;28;20037;-73
2022/04/10 01:48:48;;;;;;;20.77;5.80;;;5.60;67.30;;;;;;5070967;28;20103;-73
2022/04/10 01:51:15;;;;;;;51.97;6.55;;;5.60;67.40;;;;;;5069705;28;20482;-73
2022/04/10 01:53:54;;;;;;;21.40;5.93;;;5.70;67.40;;;;;;5070911;28;20489;-73
2022/04/10 01:56:27;;;;;;;34.00;5.63;;;5.70;67.30;;;;;;5070430;28;20449;-73
2022/04/10 01:58:53;;;;;;;27.38;6.47;;;5.70;67.40;;;;;;5071626;28;20561;-73
2022/04/10 02:01:40;;;;;;;;;;;5.70;66.80;;;;;;5074909;28;20044;-73
2022/04/10 02:04:51;;;;;;;70.40;7.07;;;5.70;66.90;;;;;;5075448;28;19912;-73
2022/04/10 02:07:18;;;;;;;38.55;7.07;;;5.80;66.90;;;;;;5073494;28;20033;-73
2022/04/10 02:10:05;;;;;;;45.05;6.57;;;5.70;66.80;;;;;;5074528;28;20037;-73
2022/04/10 02:12:37;;;;;;;14.05;6.35;;;5.70;67.10;;;;;;5073066;28;20440;-73
2022/04/10 02:15:06;;;;;;;37.22;6.30;;;5.70;67.10;;;;;;5074577;28;20033;-73
2022/04/10 02:17:41;;;;;;;57.42;6.00;;;5.70;66.50;;;;;;5074344;28;20051;-73
2022/04/10 02:20:20;;;;;;;85.22;6.85;;;5.70;67.30;;;;;;5074129;28;20108;-73
2022/04/10 02:22:46;;;;;;;33.53;6.25;;;5.70;67.40;;;;;;5073624;28;20047;-73
2022/04/10 02:25:22;;;;;;;43.95;6.07;;;5.70;67.50;;;;;;5073999;28;20040;-73
2022/04/10 02:27:52;;;;;;;49.20;5.43;;;5.70;67.60;;;;;;5057842;28;20040;-73
2022/04/10 02:30:47;;;;;;;23.92;5.68;;;5.70;67.50;;;;;;5074921;28;20029;-73
2022/04/10 02:33:16;;;;;;;48.38;6.75;;;5.70;67.40;;;;;;5054672;28;20124;-73
2022/04/10 02:35:48;;;;;;;56.90;6.05;;;5.70;67.30;;;;;;5073825;28;20033;-73
2022/04/10 02:38:17;;;;;;;16.88;5.28;;;5.70;67.50;;;;;;5074078;28;20393;-73
2022/04/10 02:41:01;;;;;;;24.00;5.57;;;5.70;67.90;;;;;;5056687;28;20025;-73
2022/04/10 02:43:31;;;;;;;54.58;6.75;;;5.60;67.60;;;;;;5075207;28;20094;-73
2022/04/10 02:46:18;;;;;;;24.38;5.85;;;5.70;67.50;;;;;;5056632;28;20070;-73
2022/04/10 02:48:46;;;;;;;23.08;6.53;;;5.70;67.50;;;;;;5073849;28;20396;-73
2022/04/10 02:51:20;;;;;;;28.70;7.07;;;5.70;67.40;;;;;;5073687;28;20036;-74
2022/04/10 02:54:11;;;;;;;29.92;7.03;;;5.70;67.60;;;;;;5056824;28;20039;-73
2022/04/10 02:56:41;;;;;;;56.00;7.63;;;5.70;67.60;;;;;;5073045;28;20040;-73
2022/04/10 02:59:35;;;;;;;28.13;6.35;;;5.80;67.40;;;;;;5073713;28;20040;-73
2022/04/10 03:02:25;;;;;;;20.92;6.07;;;5.80;67.40;;;;;;5073101;28;20037;-73
2022/04/10 03:04:55;;;;;;;15.68;6.20;;;5.80;67.40;;;;;;5074744;28;20036;-73
2022/04/10 03:07:21;;;;;;;26.05;6.18;;;5.70;67.40;;;;;;5055752;28;20033;-73
2022/04/10 03:09:56;;;;;;;22.90;4.75;;;5.70;67.50;;;;;;5073492;28;20036;-73
2022/04/10 03:12:25;;;;;;;16.63;5.05;;;5.70;67.60;;;;;;5074034;28;20055;-73
2022/04/10 03:15:01;;;;;;;21.13;5.45;;;5.70;67.70;;;;;;5055877;28;20097;-73
2022/04/10 03:17:27;;;;;;;17.90;5.65;;;5.70;67.50;;;;;;5073106;28;20045;-73
2022/04/10 03:19:53;;;;;;;24.27;5.72;;;5.70;67.50;;;;;;5074444;28;20051;-73
2022/04/10 03:22:22;;;;;;;19.17;6.03;;;5.70;67.50;;;;;;5073423;28;20044;-73
2022/04/10 03:25:02;;;;;;;20.45;6.35;;;5.80;67.40;;;;;;5074147;28;20119;-73
2022/04/10 03:27:58;;;;;;;18.25;6.05;;;5.80;67.30;;;;;;5073001;28;20032;-73
2022/04/10 03:30:44;;;;;;;20.60;6.25;;;5.80;67.40;;;;;;5072633;28;20127;-73
2022/04/10 03:33:11;;;;;;;16.52;5.65;;;5.80;67.40;;;;;;5073111;28;20060;-73
2022/04/10 03:35:52;;;;;;;21.23;5.80;;;5.70;66.70;;;;;;5071562;28;20060;-73
2022/04/10 03:38:25;;;;;;;20.40;5.63;;;5.70;67.40;;;;;;5071515;28;20079;-73
2022/04/10 03:40:53;;;;;;;42.75;6.72;;;5.70;67.30;;;;;;5071277;28;20108;-73
2022/04/10 03:43:42;;;;;;;21.98;5.93;;;5.70;67.60;;;;;;5073051;28;20086;-73
2022/04/10 03:46:24;;;;;;;122.05;9.35;;;5.60;67.80;;;;;;5056479;28;20044;-73
2022/04/10 03:49:17;;;;;;;68.13;7.40;;;5.70;67.90;;;;;;5071725;28;20082;-73
2022/04/10 03:51:46;;;;;;;59.13;6.82;;;5.70;67.90;;;;;;5071378;28;20049;-73
2022/04/10 03:54:21;;;;;;;68.65;8.68;;;5.60;67.80;;;;;;5071624;28;20481;-73
2022/04/10 03:56:49;;;;;;;62.25;6.80;;;5.60;67.90;;;;;;5071229;28;20041;-73
2022/04/10 03:59:27;;;;;;;65.13;7.68;;;5.60;68.00;;;;;;5072831;28;20082;-73
2022/04/10 04:02:19;;;;;;;43.42;6.60;;;5.60;67.90;;;;;;5071442;28;20043;-73
2022/04/10 04:04:51;;;;;;;51.00;7.10;;;5.60;68.20;;;;;;5072643;28;20040;-73
2022/04/10 04:07:42;;;;;;;26.42;6.47;;;5.60;68.10;;;;;;5071743;28;20036;-73
2022/04/10 04:10:11;;;;;;;29.48;5.65;;;5.60;68.30;;;;;;5070817;28;20119;-73
2022/04/10 04:12:39;;;;;;;62.90;5.90;;;5.50;68.30;;;;;;5071448;28;20086;-73
2022/04/10 04:15:27;;;;;;;51.55;6.30;;;5.50;68.30;;;;;;5071070;28;20044;-73
2022/04/10 04:17:56;;;;;;;35.70;5.50;;;5.50;67.70;;;;;;5071475;28;20044;-74
2022/04/10 04:20:37;;;;;;;61.83;6.53;;;5.50;68.50;;;;;;5072041;28;20024;-73
2022/04/10 04:23:25;;;;;;;50.33;5.97;;;5.50;68.60;;;;;;5070254;28;20036;-73
2022/04/10 04:26:13;;;;;;;47.50;5.60;;;5.50;68.50;;;;;;5070656;28;20045;-73
2022/04/10 04:28:59;;;;;;;36.83;5.20;;;5.60;68.60;;;;;;5071526;28;20405;-73
2022/04/10 04:31:25;;;;;;;39.65;5.05;;;5.50;68.50;;;;;;5054164;28;20055;-73
2022/04/10 04:33:52;;;;;;;32.03;4.38;;;5.40;69.40;;;;;;5006688;28;1398413;-73
2022/04/10 04:36:30;;;;;;;44.20;4.57;;;5.40;68.50;;;;;;5054461;28;20443;-73
2022/04/10 04:39:21;;;;;;;32.72;4.72;;;5.50;68.60;;;;;;5072048;28;20068;-73
2022/04/10 04:42:00;;;;;;;;;;;;;;;;;;;;;
2022/04/10 04:44:30;;;;;;;29.23;4.07;;;5.50;68.30;;;;;;5050754;28;20056;-73
2022/04/10 04:46:59;;;;;;;21.92;3.70;;;5.50;68.20;;;;;;5071296;28;20047;-73
2022/04/10 04:49:48;;;;;;;21.98;4.20;;;5.50;67.50;;;;;;5071666;28;20071;-73
2022/04/10 04:52:42;;;;;;;29.70;3.92;;;5.60;68.10;;;;;;5071031;28;20032;-73
2022/04/10 04:55:17;;;;;;;13.40;4.43;;;5.60;67.80;;;;;;5071136;28;20043;-74
2022/04/10 04:57:50;;;;;;;31.45;4.53;;;5.50;67.80;;;;;;5071735;28;20119;-73
2022/04/10 05:00:19;;;;;;;16.15;4.65;;;5.60;67.50;;;;;;5071134;28;20436;-73
2022/04/10 05:02:58;;;;;;;18.42;5.40;;;5.60;67.40;;;;;;5071582;28;20489;-73
2022/04/10 05:05:29;;;;;;;16.83;5.20;;;5.60;67.60;;;;;;5071039;28;20047;-73
2022/04/10 05:08:19;;;;;;;14.15;4.53;;;5.60;67.40;;;;;;5071669;28;20047;-73
2022/04/10 05:10:54;;;;;;;42.67;4.53;;;5.70;67.30;;;;;;5072038;28;20037;-73
2022/04/10 05:13:23;;;;;;;23.98;3.85;;;5.70;66.60;;;;;;5072604;28;20029;-73
2022/04/10 05:15:55;;;;;;;15.52;3.85;;;5.60;67.20;;;;;;5070793;28;20103;-73
2022/04/10 05:18:33;;;;;;;32.15;7.28;;;5.70;67.20;;;;;;5071367;28;20036;-74
2022/04/10 05:21:19;;;;;;;29.35;4.30;;;5.70;66.60;;;;;;5053977;28;20071;-74
2022/04/10 05:24:09;;;;;;;26.05;4.63;;;5.70;67.10;;;;;;5071505;28;20080;-73
2022/04/10 05:26:35;;;;;;;19.80;4.25;;;5.70;66.40;;;;;;5071999;28;20040;-73
2022/04/10 05:29:08;;;;;;;25.85;3.80;;;5.80;66.90;;;;;;5071353;28;20044;-73
2022/04/10 05:31:53;;;;;;;19.70;4.25;;;5.80;66.80;;;;;;5069731;28;20059;-73
2022/04/10 05:34:24;;;;;;;12.73;3.45;;;5.90;66.80;;;;;;5072349;28;20051;-73
2022/04/10 05:36:52;;;;;;;10.85;3.58;;;6.00;66.60;;;;;;5076219;28;20036;-73
2022/04/10 05:39:19;;;;;;;29.98;6.80;;;6.00;66.50;;;;;;5074351;28;20135;-73
2022/04/10 05:41:47;;;;;;;24.77;8.15;;;6.10;66.50;;;;;;5058015;28;20036;-73
2022/04/10 05:44:21;;;;;;;60.42;16.30;;;6.10;66.60;;;;;;5075040;28;20386;-73
2022/04/10 05:46:47;;;;;;;39.30;7.65;;;6.10;66.50;;;;;;5076006;28;20032;-73
2022/04/10 05:49:28;;;;;;;49.78;18.23;;;6.20;66.50;;;;;;5076247;28;20037;-73
2022/04/10 05:51:54;;;;;;;45.35;18.58;;;6.10;66.50;;;;;;5057433;28;20043;-73
2022/04/10 05:54:36;;;;;;;20.73;7.07;;;6.20;66.40;;;;;;5057321;28;20036;-73
2022/04/10 05:57:22;;;;;;;15.95;7.03;;;6.20;66.40;;;;;;5075787;28;20040;-73
2022/04/10 05:59:48;;;;;;;20.67;10.40;;;6.20;66.40;;;;;;5076095;28;20063;-73
2022/04/10 06:02:44;;;;;;;18.63;8.85;;;6.20;66.10;;;;;;5076344;28;20072;-74
2022/04/10 06:05:11;;;;;;;28.48;12.52;;;6.20;66.10;;;;;;5074373;28;20036;-73
2022/04/10 06:07:40;;;;;;;21.95;9.55;;;6.10;66.20;;;;;;5073978;28;20057;-73
2022/04/10 06:10:07;;;;;;;23.15;9.32;;;6.20;66.30;;;;;;5074386;28;20098;-73
2022/04/10 06:12:33;;;;;;;12.68;5.97;;;6.20;66.00;;;;;;5074302;28;20025;-73
2022/04/10 06:15:11;;;;;;;13.68;5.95;;;6.20;66.90;;;;;;5075685;28;20072;-73
2022/04/10 06:17:41;;;;;;;13.70;6.55;;;6.30;66.10;;;;;;5076132;28;20086;-73
2022/04/10 06:20:21;;;;;;;11.57;5.78;;;6.30;65.70;;;;;;5074077;28;20048;-73
2022/04/10 06:22:50;;;;;;;11.35;5.50;;;6.40;65.50;;;;;;5073800;28;20032;-73
2022/04/10 06:25:28;;;;;;;16.33;6.80;;;6.50;65.60;;;;;;5073590;28;20121;-73
2022/04/10 06:27:58;;;;;;;18.85;7.63;;;6.60;65.30;;;;;;5075963;28;20477;-73
2022/04/10 06:30:50;;;;;;;20.02;8.25;;;6.60;65.10;;;;;;5073805;28;20044;-73
2022/04/10 06:33:19;;;;;;;18.40;7.70;;;6.70;65.10;;;;;;5075132;28;20060;-73
2022/04/10 06:35:46;;;;;;;21.10;8.43;;;6.80;64.90;;;;;;5056896;28;20032;-73
2022/04/10 06:38:21;;;;;;;14.63;6.22;;;6.90;64.80;;;;;;5074340;28;20033;-73
2022/04/10 06:40:48;;;;;;;10.73;5.38;;;6.90;64.00;;;;;;5058043;28;20520;-73
2022/04/10 06:43:20;;;;;;;13.98;5.55;;;7.10;64.40;;;;;;5073788;28;20480;-74
2022/04/10 06:46:24;;;;;;;11.70;5.40;;;7.10;64.20;;;;;;5073332;28;20040;-73
2022/04/10 06:48:54;;;;;;;13.43;6.45;;;7.20;64.00;;;;;;5074271;28;20370;-73
2022/04/10 06:51:23;;;;;;;23.48;12.38;;;7.30;64.20;;;;;;5073339;28;20036;-73
2022/04/10 06:53:54;;;;;;;19.90;10.25;;;7.40;63.30;;;;;;5072903;28;20043;-73
2022/04/10 06:56:25;;;;;;;21.63;11.82;;;7.50;63.50;;;;;;5074602;28;20519;-73
2022/04/10 06:58:51;;;;;;;17.95;9.38;;;7.70;63.10;;;;;;5073698;28;20036;-73
2022/04/10 07:01:20;;;;;;;20.33;11.15;;;7.80;62.90;;;;;;5073105;28;20028;-74
2022/04/10 07:04:06;;;;;;;19.50;11.02;;;7.90;62.60;;;;;;5056867;28;20049;-73
2022/04/10 07:06:40;;;;;;;23.17;11.70;;;7.80;62.60;;;;;;5073202;28;20094;-73
2022/04/10 07:09:06;;;;;;;35.50;20.23;;;7.90;62.80;;;;;;5072521;28;20405;-73
2022/04/10 07:11:32;;;;;;;;;;;8.00;62.60;;;;;;5074889;28;20032;-73
2022/04/10 07:13:59;;;;;;;17.73;6.55;;;8.10;62.60;;;;;;5073392;28;19954;-73
2022/04/10 07:16:25;;;;;;;10.77;5.45;;;8.10;61.70;;;;;;5064115;28;20173;-74
2022/04/10 07:19:10;;;;;;;13.43;5.55;;;8.10;62.20;;;;;;5036451;28;20033;-74
2022/04/10 07:24:22;;;;;;;9.32;5.10;;;8.30;62.00;;;;;;5065718;28;20040;-73
2022/04/10 07:27:07;;;;;;;11.18;5.70;;;8.50;61.40;;;;;;5073375;28;20469;-73
2022/04/10 07:29:40;;;;;;;9.10;4.10;;;8.70;61.40;;;;;;5071660;28;20068;-74
2022/04/10 07:32:08;;;;;;;8.63;3.60;;;8.80;61.80;;;;;;5071567;28;20471;-74
2022/04/10 07:34:39;;;;;;;8.60;4.35;;;8.90;61.50;;;;;;5070424;28;20048;-74
2022/04/10 07:37:41;;;;;;;7.22;4.10;;;9.00;61.50;;;;;;5073527;28;20036;-74
2022/04/10 07:40:30;;;;;;;7.68;3.78;;;9.30;61.80;;;;;;5047989;28;20131;-74
2022/04/10 07:43:11;;;;;;;10.13;4.50;;;9.90;61.30;;;;;;5035111;28;20079;-74
2022/04/10 07:48:44;;;;;;;9.30;5.25;;;11.20;60.30;;;;;;5051601;28;20048;-74
2022/04/10 07:51:25;;;;;;;7.93;3.80;;;11.90;60.00;;;;;;5040305;28;20378;-74
2022/04/10 07:54:05;;;;;;;7.88;3.78;;;12.50;58.50;;;;;;5025787;28;20413;-74
2022/04/10 07:56:36;;;;;;;9.10;4.10;;;13.20;57.90;;;;;;5032141;28;20045;-75
2022/04/10 07:59:34;;;;;;;7.28;3.70;;;13.90;56.60;;;;;;5034166;28;20118;-74
2022/04/10 08:02:14;;;;;;;7.78;3.50;;;14.70;55.90;;;;;;5033953;28;20033;-72
2022/04/10 08:04:48;;;;;;;8.20;4.35;;;15.50;52.40;;;;;;5047766;28;20049;-72
2022/04/10 08:07:17;;;;;;;7.28;3.95;;;16.40;50.90;;;;;;5033370;28;20043;-73
2022/04/10 08:09:46;;;;;;;6.18;3.05;;;17.10;49.10;;;;;;5062922;28;20126;-74
2022/04/10 08:12:44;;;;;;;8.55;4.10;;;17.80;47.20;;;;;;5061356;28;20033;-73
2022/04/10 08:15:15;;;;;;;9.27;4.85;;;18.50;44.50;;;;;;5057119;28;20032;-73
2022/04/10 08:17:47;;;;;;;8.00;5.10;;;19.30;42.70;;;;;;5070164;28;20044;-73
2022/04/10 08:20:23;;;;;;;8.48;4.43;;;20.00;41.60;;;;;;5071353;28;20383;-73
2022/04/10 08:25:39;;;;;;;9.27;4.50;;;21.50;39.00;;;;;;5069881;28;20129;-73
2022/04/10 08:28:05;;;;;;;7.75;4.50;;;22.60;37.80;;;;;;5072540;28;20060;-73
2022/04/10 08:31:12;;;;;;;5.97;3.10;;;23.20;35.80;;;;;;5071880;28;20036;-73
2022/04/10 08:33:39;;;;;;;6.28;3.13;;;24.00;34.50;;;;;;5071215;28;20135;-73
2022/04/10 08:36:28;;;;;;;5.57;2.78;;;24.70;31.10;;;;;;5072722;28;20101;-73
2022/04/10 08:38:58;;;;;;;7.45;3.60;;;24.90;30.20;;;;;;5070836;28;20052;-73
2022/04/10 08:41:31;;;;;;;;;;;25.60;29.10;;;;;;5071730;28;20066;-73
2022/04/10 08:44:03;;;;;;;4.80;2.00;;;26.10;32.30;;;;;;5071880;28;20403;-73
2022/04/10 08:46:40;;;;;;;11.20;5.90;;;26.60;26.80;;;;;;5071541;28;20047;-73
2022/04/10 08:49:20;;;;;;;5.35;1.67;;;26.70;25.50;;;;;;5071591;28;20075;-73
2022/04/10 08:51:57;;;;;;;16.65;9.45;;;27.00;24.80;;;;;;5054510;28;20036;-73
2022/04/10 08:54:29;;;;;;;5.65;2.38;;;27.40;23.70;;;;;;5070738;28;20102;-74
2022/04/10 08:57:16;;;;;;;15.35;7.10;;;27.80;22.10;;;;;;5072571;28;20059;-72
2022/04/10 08:59:43;;;;;;;14.38;5.60;;;27.90;22.00;;;;;;5071789;28;20115;-73
2022/04/10 09:02:12;;;;;;;4.35;1.70;;;28.50;21.40;;;;;;5070963;28;20047;-74
2022/04/10 09:04:39;;;;;;;2.03;0.80;;;28.80;20.20;;;;;;5088185;28;20032;-73
2022/04/10 09:07:14;;;;;;;3.88;1.60;;;28.80;19.50;;;;;;5054219;28;20059;-74
2022/04/10 09:09:54;;;;;;;5.22;1.52;;;29.30;19.30;;;;;;5070545;28;20043;-73
2022/04/10 09:12:27;;;;;;;3.97;1.38;;;29.60;18.50;;;;;;5051162;28;20043;-73
2022/04/10 09:15:06;;;;;;;3.53;1.40;;;30.30;18.10;;;;;;5071310;28;20036;-73
2022/04/10 09:18:05;;;;;;;5.00;2.30;;;30.40;17.20;;;;;;5070596;28;20040;-73
2022/04/10 09:21:09;;;;;;;7.00;1.65;;;30.40;17.90;;;;;;5049546;28;20045;-73
2022/04/10 09:23:36;;;;;;;4.00;1.50;;;30.80;17.60;;;;;;5033822;28;20679;-73
2022/04/10 09:26:48;;;;;;;5.57;1.83;;;31.50;15.80;;;;;;5053113;28;20064;-73
2022/04/10 09:29:25;;;;;;;4.65;1.50;;;31.90;16.50;;;;;;5071607;28;20028;-74
2022/04/10 09:32:14;;;;;;;4.30;1.90;;;32.00;15.10;;;;;;5065592;28;20032;-75
2022/04/10 09:34:45;;;;;;;5.68;1.40;;;32.30;15.20;;;;;;5067445;28;20068;-75
2022/04/10 09:37:56;;;;;;;2.90;1.13;;;32.70;14.60;;;;;;5018560;28;20522;-75
2022/04/10 09:40:58;;;;;;;6.07;1.10;;;33.30;14.20;;;;;;5041604;28;20419;-75
2022/04/10 09:43:58;;;;;;;7.85;2.35;;;33.80;13.10;;;;;;5024017;28;20312;-74
2022/04/10 09:46:34;;;;;;;4.28;1.90;;;34.40;13.10;;;;;;5036400;28;20102;-75
2022/04/10 09:49:20;;;;;;;5.25;1.60;;;34.80;12.50;;;;;;5049806;28;20049;-74
2022/04/10 09:52:44;;;;;;;7.85;2.47;;;35.20;13.00;;;;;;5048995;28;20083;-74
2022/04/10 09:56:08;;;;;;;20.48;10.73;;;35.70;12.90;;;;;;5048171;28;20099;-74
2022/04/10 09:58:41;;;;;;;26.25;16.75;;;36.20;12.90;;;;;;5049709;28;20191;-74
2022/04/10 10:01:12;;;;;;;13.75;7.82;;;36.80;10.90;;;;;;5015926;28;20041;-75
2022/04/10 10:03:39;;;;;;;3.13;1.15;;;37.10;10.40;;;;;;5033205;28;20045;-75
2022/04/10 10:06:12;;;;;;;3.28;1.40;;;36.90;9.90;;;;;;5032521;28;20048;-74
2022/04/10 10:08:43;;;;;;;6.07;2.95;;;37.20;10.30;;;;;;5017395;28;20049;-74
2022/04/10 10:11:12;;;;;;;12.05;8.00;;;37.70;9.70;;;;;;5014970;28;20384;-74
2022/04/10 10:13:41;;;;;;;3.50;1.45;;;38.00;9.60;;;;;;5032599;28;20086;-74
2022/04/10 10:16:39;;;;;;;;;;;;;;;;;;;;;
2022/04/10 10:19:07;;;;;;;3.30;1.20;;;38.50;9.30;;;;;;5050907;28;20506;-75
2022/04/10 10:21:38;;;;;;;5.45;1.42;;;38.00;9.20;;;;;;5069810;28;20028;-74
2022/04/10 10:24:19;;;;;;;3.47;1.45;;;38.60;9.50;;;;;;5054417;28;20037;-74
2022/04/10 10:27:41;;;;;;;4.53;1.65;;;38.50;9.10;;;;;;5071866;28;20132;-74
2022/04/10 10:31:03;;;;;;;5.13;1.70;;;38.90;10.10;;;;;;5075531;28;20048;-74
2022/04/10 10:33:51;;;;;;;4.85;1.98;;;39.50;10.10;;;;;;5075029;28;20063;-74
2022/04/10 10:36:31;;;;;;;4.25;1.75;;;40.00;9.50;;;;;;5073847;28;20048;-74
2022/04/10 10:39:20;;;;;;;4.60;1.50;;;40.40;8.90;;;;;;5074167;28;20287;-74
2022/04/10 10:41:54;;;;;;;4.78;1.58;;;40.50;8.90;;;;;;5072633;28;20037;-74
2022/04/10 10:44:40;;;;;;;3.53;1.48;;;39.60;8.80;;;;;;5057481;28;20024;-74
2022/04/10 10:47:18;;;;;;;6.22;1.85;;;39.60;9.10;;;;;;5041728;28;20043;-74
2022/04/10 10:49:46;;;;;;;6.00;2.10;;;39.60;8.50;;;;;;5054005;28;20025;-74
2022/04/10 10:52:14;;;;;;;3.28;1.40;;;37.70;9.00;;;;;;5053511;28;20044;-74
2022/04/10 10:54:45;;;;;;;3.92;1.75;;;36.30;10.00;;;;;;5055027;28;20025;-74
2022/04/10 10:57:54;;;;;;;5.18;1.55;;;36.40;10.00;;;;;;5089903;28;20454;-74
2022/04/10 11:00:23;;;;;;;4.25;2.05;;;38.30;10.00;;;;;;5074407;28;20062;-74
2022/04/10 11:02:55;;;;;;;10.25;5.53;;;37.80;8.70;;;;;;5058761;28;20107;-74
2022/04/10 11:05:43;;;;;;;4.78;2.20;;;36.90;9.20;;;;;;5053016;28;20041;-74
2022/04/10 11:08:13;;;;;;;4.38;2.10;;;36.20;10.00;;;;;;5054789;28;20037;-74
2022/04/10 11:11:19;;;;;;;3.65;1.63;;;35.90;9.80;;;;;;5058937;28;20028;-75
2022/04/10 11:14:03;;;;;;;3.72;1.60;;;35.10;10.60;;;;;;5073396;28;20086;-74
2022/04/10 11:16:44;;;;;;;5.60;1.75;;;37.70;9.40;;;;;;5074016;28;20029;-74
2022/04/10 11:19:11;;;;;;;5.10;2.10;;;36.00;9.90;;;;;;5073432;28;20200;-74
2022/04/10 11:21:59;;;;;;;6.05;1.90;;;34.60;10.50;;;;;;5073901;28;20043;-74
2022/04/10 11:24:27;;;;;;;3.92;1.75;;;33.40;11.30;;;;;;5073220;28;20405;-74
2022/04/10 11:28:15;;;;;;;5.63;2.20;;;35.50;11.20;;;;;;5071894;28;20047;-74
2022/04/10 11:30:46;;;;;;;4.35;1.67;;;34.50;11.10;;;;;;5089416;28;20121;-74
2022/04/10 11:33:13;;;;;;;3.15;1.40;;;33.90;11.60;;;;;;5071648;28;20045;-74
2022/04/10 11:36:15;;;;;;;3.67;1.52;;;34.30;11.30;;;;;;5072503;28;20029;-74
2022/04/10 11:38:41;;;;;;;3.95;1.70;;;34.40;10.90;;;;;;5072894;28;20064;-75
2022/04/10 11:41:10;;;;;;;4.72;1.50;;;33.80;10.90;;;;;;5071619;28;20032;-75
2022/04/10 11:43:39;;;;;;;12.18;5.18;;;34.80;10.60;;;;;;5071756;28;20040;-75
2022/04/10 11:46:13;;;;;;;5.60;2.03;;;35.60;10.00;;;;;;5032449;28;20068;-75
2022/04/10 11:48:56;;;;;;;5.38;1.80;;;33.60;10.80;;;;;;5052957;28;20040;-74
2022/04/10 11:51:53;;;;;;;4.82;2.28;;;31.80;11.60;;;;;;5068934;28;20040;-74
2022/04/10 11:54:38;;;;;;;;;;;30.50;12.40;;;;;;5073266;28;20094;-75
2022/04/10 11:57:24;;;;;;;6.80;1.60;;;29.30;13.00;;;;;;5088079;28;19917;-75
2022/04/10 11:59:53;;;;;;;9.65;3.50;;;28.30;13.60;;;;;;5071792;28;20037;-73
2022/04/10 12:02:25;;;;;;;3.85;1.48;;;27.70;14.40;;;;;;5073624;28;20096;-75
2022/04/10 12:04:53;;;;;;;5.32;2.38;;;27.30;14.80;;;;;;5070103;28;20116;-74
2022/04/10 12:07:24;;;;;;;6.70;2.35;;;26.80;15.10;;;;;;5071551;28;20051;-74
2022/04/10 12:09:56;;;;;;;8.32;3.85;;;26.70;15.70;;;;;;5072088;28;20032;-75
2022/04/10 12:12:38;;;;;;;6.68;2.50;;;28.60;14.50;;;;;;5071081;28;20036;-74
2022/04/10 12:15:33;;;;;;;5.95;3.38;;;30.10;14.00;;;;;;5055895;28;20394;-75
2022/04/10 12:18:23;;;;;;;7.78;3.95;;;34.40;11.40;;;;;;5073377;28;20029;-76
2022/04/10 12:21:01;;;;;;;3.80;1.50;;;37.10;10.10;;;;;;5055092;28;20036;-75
2022/04/10 12:23:36;;;;;;;3.65;1.15;;;38.10;9.10;;;;;;5073231;28;20481;-74
2022/04/10 12:26:13;;;;;;;3.28;1.33;;;39.90;8.00;;;;;;5070501;28;20040;-74
2022/04/10 12:28:43;;;;;;;4.90;1.85;;;40.50;7.80;;;;;;5055809;28;20036;-75
2022/04/10 12:31:13;;;;;;;3.70;1.27;;;41.40;8.00;;;;;;5071480;28;20082;-75
2022/04/10 12:33:55;;;;;;;4.57;1.30;;;41.60;7.20;;;;;;5071611;28;20467;-75
2022/04/10 12:36:23;;;;;;;5.50;2.10;;;38.90;8.10;;;;;;5071580;28;20047;-74
2022/04/10 12:39:11;;;;;;;10.77;4.88;;;35.80;9.80;;;;;;5071689;28;20029;-74
2022/04/10 12:41:48;;;;;;;4.45;1.38;;;33.20;11.40;;;;;;5071854;28;20052;-74
2022/04/10 12:44:24;;;;;;;4.53;2.10;;;33.00;11.70;;;;;;5039279;28;20035;-74
2022/04/10 12:47:11;;;;;;;4.68;1.73;;;34.30;10.70;;;;;;5072670;28;20036;-74
2022/04/10 12:49:47;;;;;;;3.47;1.50;;;32.40;11.40;;;;;;5069414;28;20041;-74
2022/04/10 12:52:23;;;;;;;6.65;2.08;;;31.00;11.90;;;;;;5071436;28;20044;-74
2022/04/10 12:54:50;;;;;;;6.63;2.70;;;29.60;12.80;;;;;;5054946;28;20036;-74
2022/04/10 12:58:15;;;;;;;5.80;2.28;;;28.60;13.30;;;;;;5070106;28;20041;-75
2022/04/10 13:01:17;;;;;;;5.65;2.15;;;27.70;14.30;;;;;;5072276;28;20387;-74
2022/04/10 13:03:47;;;;;;;6.10;2.10;;;26.70;14.60;;;;;;5071223;28;20036;-74
2022/04/10 13:06:16;;;;;;;8.20;3.58;;;25.90;15.20;;;;;;5072064;28;20401;-74
2022/04/10 13:09:20;;;;;;;7.70;3.10;;;25.20;16.10;;;;;;5071441;28;20032;-75
2022/04/10 13:11:47;;;;;;;7.47;1.58;;;24.50;16.40;;;;;;5052463;28;20063;-74
2022/04/10 13:14:29;;;;;;;2.90;1.13;;;23.70;17.00;;;;;;5072597;28;20065;-74
2022/04/10 13:17:04;;;;;;;6.35;2.42;;;22.90;17.50;;;;;;5055414;28;20041;-74
2022/04/10 13:19:51;;;;;;;4.30;1.67;;;21.80;19.00;;;;;;5071298;28;20067;-74
2022/04/10 13:22:18;;;;;;;;;;;21.40;20.40;;;;;;5072899;28;20412;-74
2022/04/10 13:24:55;;;;;;;4.07;1.77;;;24.60;18.20;;;;;;5071324;28;20357;-74
2022/04/10 13:27:21;;;;;;;2.63;1.02;;;27.60;15.90;;;;;;5070119;28;20075;-74
2022/04/10 13:30:10;;;;;;;5.40;1.70;;;29.70;13.80;;;;;;5072523;28;20519;-74
2022/04/10 13:32:36;;;;;;;3.95;1.17;;;32.20;12.20;;;;;;5070975;28;20053;-74
2022/04/10 13:35:09;;;;;;;6.35;1.95;;;31.10;12.70;;;;;;5071204;28;20032;-74
2022/04/10 13:37:35;;;;;;;7.50;4.88;;;31.60;12.50;;;;;;5072369;28;20044;-74
2022/04/10 13:40:04;;;;;;;5.15;2.08;;;31.70;11.90;;;;;;5072339;28;20397;-74
2022/04/10 13:42:34;;;;;;;7.50;3.90;;;30.40;12.30;;;;;;5071068;28;20033;-74
2022/04/10 13:45:22;;;;;;;4.65;1.50;;;29.00;13.50;;;;;;5071041;28;20110;-74
2022/04/10 13:48:03;;;;;;;6.20;2.13;;;27.50;14.60;;;;;;5072642;28;20036;-74
2022/04/10 13:50:30;;;;;;;2.53;1.10;;;25.90;16.50;;;;;;5070509;28;20036;-74
2022/04/10 13:52:59;;;;;;;3.95;1.20;;;24.40;18.40;;;;;;5054411;28;20405;-74
2022/04/10 13:55:26;;;;;;;2.97;1.10;;;24.00;19.30;;;;;;5071814;28;20037;-74